Time;durP1;ratioP1;P1;durP2;ratioP2;P2;SDS_P1;SDS_P2;PMS_P1;PMS_P2;Temp;Humidity;BMP_temperature;BMP_pressure;BME280_temperature;BME280_humidity;BME280_pressure;Samples;Min_cycle;Max_cycle;Signal;HPM_P1;HPM_P2
2022/01/09 00:01:30;;;;;;;0.55;0.40;;;14.10;80.60;;;;;;10416632;28;20053;-79
2022/01/09 00:06:32;;;;;;;0.50;0.40;;;14.10;80.00;;;;;;10416254;28;20476;-79
2022/01/09 00:11:33;;;;;;;0.40;0.30;;;14.10;80.00;;;;;;10455673;28;20524;-80
2022/01/09 00:16:35;;;;;;;0.50;0.30;;;14.10;80.10;;;;;;10456120;28;20056;-79
2022/01/09 00:21:36;;;;;;;0.50;0.40;;;14.10;80.00;;;;;;10457195;28;20123;-80
2022/01/09 00:26:38;;;;;;;0.30;0.20;;;14.10;80.20;;;;;;10455388;28;20094;-80
2022/01/09 00:31:39;;;;;;;0.30;0.30;;;14.10;80.00;;;;;;10430908;28;20049;-80
2022/01/09 00:36:41;;;;;;;0.47;0.20;;;14.10;80.10;;;;;;10415294;28;20057;-79
2022/01/09 00:41:42;;;;;;;0.40;0.40;;;14.10;80.70;;;;;;10448478;28;20045;-80
2022/01/09 00:46:44;;;;;;;0.35;0.30;;;14.10;80.10;;;;;;10447068;28;20099;-81
2022/01/09 00:51:45;;;;;;;0.40;0.30;;;14.10;80.20;;;;;;10414335;28;20049;-80
2022/01/09 00:56:47;;;;;;;0.40;0.30;;;14.10;80.10;;;;;;10414216;28;20049;-82
2022/01/09 01:01:48;;;;;;;0.45;0.30;;;14.10;80.20;;;;;;10414016;28;20054;-81
2022/01/09 01:06:51;;;;;;;0.60;0.30;;;14.10;80.10;;;;;;10414277;28;20446;-80
2022/01/09 01:11:53;;;;;;;0.28;0.20;;;14.10;80.20;;;;;;10436469;28;20053;-81
2022/01/09 01:16:54;;;;;;;0.40;0.30;;;14.10;80.20;;;;;;10454428;28;20057;-80
2022/01/09 01:21:56;;;;;;;0.50;0.30;;;14.10;80.20;;;;;;10453911;28;20095;-81
2022/01/09 01:26:57;;;;;;;0.30;0.20;;;14.10;80.80;;;;;;10445180;28;20045;-81
2022/01/09 01:31:59;;;;;;;0.30;0.20;;;14.10;80.20;;;;;;10453966;28;20056;-80
2022/01/09 01:37:00;;;;;;;0.40;0.20;;;14.10;80.30;;;;;;10450648;28;20058;-81
2022/01/09 01:42:02;;;;;;;0.43;0.30;;;14.10;80.20;;;;;;10448334;28;20398;-81
2022/01/09 01:47:03;;;;;;;0.30;0.20;;;14.10;80.30;;;;;;10453600;28;20479;-81
2022/01/09 01:52:05;;;;;;;0.30;0.20;;;14.10;80.20;;;;;;10453012;28;20482;-80
2022/01/09 01:57:06;;;;;;;0.50;0.40;;;14.10;80.20;;;;;;10424952;28;20053;-81
2022/01/09 02:02:08;;;;;;;0.20;0.20;;;14.10;80.30;;;;;;10411795;28;20049;-80
2022/01/09 02:07:09;;;;;;;0.20;0.20;;;14.10;80.20;;;;;;10412180;28;20053;-81
2022/01/09 02:12:11;;;;;;;0.40;0.30;;;14.10;80.40;;;;;;10424638;28;20054;-80
2022/01/09 02:17:12;;;;;;;0.32;0.20;;;14.10;80.30;;;;;;10410999;28;20057;-81
2022/01/09 02:22:15;;;;;;;0.32;0.20;;;14.10;80.30;;;;;;10411059;28;20486;-81
2022/01/09 02:27:16;;;;;;;0.50;0.20;;;14.10;80.30;;;;;;10411100;28;20059;-81
2022/01/09 02:32:19;;;;;;;0.30;0.30;;;14.10;80.80;;;;;;10411559;28;20049;-81
2022/01/09 02:37:21;;;;;;;0.45;0.20;;;14.10;80.30;;;;;;10410932;28;20045;-81
2022/01/09 02:42:24;;;;;;;0.30;0.25;;;14.10;80.30;;;;;;10441062;28;20045;-81
2022/01/09 02:47:27;;;;;;;0.20;0.20;;;14.10;80.40;;;;;;10428683;28;20136;-80
2022/01/09 02:52:33;;;;;;;0.50;0.30;;;14.10;80.30;;;;;;10411971;28;20072;-80
2022/01/09 02:57:34;;;;;;;0.43;0.20;;;14.10;80.40;;;;;;10418874;28;20521;-81
2022/01/09 03:02:36;;;;;;;0.40;0.20;;;14.10;80.40;;;;;;10419190;28;20513;-81
2022/01/09 03:07:37;;;;;;;0.30;0.20;;;14.10;80.30;;;;;;10418442;28;20045;-80
2022/01/09 03:12:39;;;;;;;0.25;0.25;;;14.10;80.40;;;;;;10447657;28;20057;-79
2022/01/09 03:17:40;;;;;;;0.30;0.20;;;14.10;80.30;;;;;;10459125;28;20053;-81
2022/01/09 03:22:42;;;;;;;0.20;0.20;;;14.10;80.50;;;;;;10426071;28;20050;-80
2022/01/09 03:27:45;;;;;;;0.35;0.30;;;14.10;80.40;;;;;;10418565;28;20049;-80
2022/01/09 03:32:46;;;;;;;0.22;0.20;;;14.10;80.40;;;;;;10417655;28;20046;-80
2022/01/09 03:37:48;;;;;;;0.35;0.20;;;14.10;80.40;;;;;;10418145;28;20426;-79
2022/01/09 03:42:51;;;;;;;0.45;0.30;;;14.10;80.40;;;;;;10436770;28;20464;-80
2022/01/09 03:47:52;;;;;;;0.20;0.20;;;14.10;80.50;;;;;;10458418;28;20045;-80
2022/01/09 03:52:54;;;;;;;0.40;0.22;;;14.20;80.40;;;;;;10455585;28;20095;-80
2022/01/09 03:57:55;;;;;;;0.30;0.20;;;14.10;80.50;;;;;;10416587;28;20049;-81
2022/01/09 04:02:57;;;;;;;0.75;0.30;;;14.10;80.40;;;;;;10416371;28;20046;-79
2022/01/09 04:07:58;;;;;;;0.30;0.20;;;14.10;80.40;;;;;;10416436;28;20540;-80
2022/01/09 04:13:00;;;;;;;0.30;0.20;;;14.10;80.50;;;;;;10447157;28;20075;-81
2022/01/09 04:18:02;;;;;;;0.45;0.30;;;14.20;80.50;;;;;;10456463;28;20106;-80
2022/01/09 04:23:04;;;;;;;0.30;0.10;;;14.10;80.50;;;;;;10457228;28;20049;-80
2022/01/09 04:28:05;;;;;;;0.40;0.30;;;14.20;80.50;;;;;;10456222;28;20045;-80
2022/01/09 04:33:08;;;;;;;0.40;0.22;;;14.10;80.50;;;;;;10456483;28;20045;-80
2022/01/09 04:38:10;;;;;;;0.60;0.30;;;14.20;80.60;;;;;;10456479;28;20487;-79
2022/01/09 04:43:13;;;;;;;0.30;0.20;;;14.20;80.50;;;;;;10455872;28;20399;-79
2022/01/09 04:48:15;;;;;;;0.77;0.20;;;14.10;80.60;;;;;;10418872;28;20088;-79
2022/01/09 04:53:16;;;;;;;0.52;0.30;;;14.20;80.60;;;;;;10414438;28;20060;-79
2022/01/09 04:58:18;;;;;;;0.47;0.30;;;14.20;80.70;;;;;;10414271;28;20050;-79
2022/01/09 05:03:20;;;;;;;0.95;0.40;;;14.20;80.60;;;;;;10442475;28;20128;-80
2022/01/09 05:08:21;;;;;;;0.75;0.35;;;14.20;80.70;;;;;;10455047;28;20045;-80
2022/01/09 05:13:22;;;;;;;1.20;0.30;;;14.20;80.70;;;;;;10454802;28;20107;-80
2022/01/09 05:18:24;;;;;;;1.08;0.40;;;14.20;80.70;;;;;;10439070;28;20400;-80
2022/01/09 05:23:25;;;;;;;1.75;0.68;;;14.20;80.80;;;;;;10413729;28;20168;-80
2022/01/09 05:28:27;;;;;;;0.90;0.40;;;14.20;80.70;;;;;;10413560;28;20473;-80
2022/01/09 05:33:28;;;;;;;0.85;0.43;;;14.20;80.80;;;;;;10412774;28;20052;-79
2022/01/09 05:38:30;;;;;;;1.45;0.40;;;14.20;80.80;;;;;;10413285;28;20049;-80
2022/01/09 05:43:32;;;;;;;1.42;0.70;;;14.20;80.80;;;;;;10437658;28;20049;-80
2022/01/09 05:48:33;;;;;;;1.40;0.40;;;14.20;80.90;;;;;;10453632;28;20049;-81
2022/01/09 05:53:35;;;;;;;1.75;0.90;;;14.20;80.80;;;;;;10437634;28;20053;-80
2022/01/09 05:58:36;;;;;;;2.53;0.68;;;14.20;81.00;;;;;;10411964;28;20057;-81
2022/01/09 06:03:38;;;;;;;3.03;0.90;;;14.20;81.00;;;;;;10412040;28;20049;-82
2022/01/09 06:08:39;;;;;;;1.67;0.80;;;14.20;81.00;;;;;;10438611;28;20041;-81
2022/01/09 06:13:41;;;;;;;3.00;0.95;;;14.20;81.10;;;;;;10430819;28;20049;-81
2022/01/09 06:18:42;;;;;;;3.17;1.10;;;14.20;81.00;;;;;;10452150;28;20056;-81
2022/01/09 06:23:44;;;;;;;2.85;1.00;;;14.20;81.20;;;;;;10452431;28;20048;-80
2022/01/09 06:28:45;;;;;;;2.15;0.82;;;14.20;81.20;;;;;;10450578;28;20041;-81
2022/01/09 06:33:47;;;;;;;3.50;1.48;;;14.20;81.30;;;;;;10452286;28;20076;-80
2022/01/09 06:38:48;;;;;;;3.40;1.10;;;14.20;81.30;;;;;;10452343;28;20060;-81
2022/01/09 06:43:49;;;;;;;2.78;1.25;;;14.20;81.20;;;;;;10442048;28;20049;-80
2022/01/09 06:48:51;;;;;;;3.38;1.27;;;14.20;81.30;;;;;;10410709;28;20284;-81
2022/01/09 06:53:52;;;;;;;4.85;1.50;;;14.20;81.30;;;;;;10410715;28;20095;-80
2022/01/09 06:58:54;;;;;;;3.22;1.10;;;14.20;81.40;;;;;;10410455;28;20084;-79
2022/01/09 07:03:55;;;;;;;5.18;2.03;;;14.20;81.30;;;;;;10411231;28;20056;-81
2022/01/09 07:08:57;;;;;;;5.28;1.63;;;14.20;81.30;;;;;;10410261;28;20096;-81
2022/01/09 07:13:58;;;;;;;4.03;1.48;;;14.20;81.40;;;;;;10429590;28;20056;-80
2022/01/09 07:19:00;;;;;;;3.90;1.40;;;14.20;81.30;;;;;;10410257;28;20056;-82
2022/01/09 07:24:01;;;;;;;4.97;1.60;;;14.20;81.50;;;;;;10409658;28;20053;-80
2022/01/09 07:29:03;;;;;;;4.00;1.40;;;14.20;81.40;;;;;;10410073;28;20057;-81
2022/01/09 07:34:04;;;;;;;4.80;1.50;;;14.20;81.50;;;;;;10410353;28;20064;-81
2022/01/09 07:39:06;;;;;;;5.25;1.50;;;14.20;81.50;;;;;;10412181;28;20060;-81
2022/01/09 07:44:07;;;;;;;4.30;1.58;;;14.20;81.40;;;;;;10447413;28;20052;-82
2022/01/09 07:49:09;;;;;;;4.38;1.30;;;14.20;81.50;;;;;;10458356;28;20060;-81
2022/01/09 07:54:10;;;;;;;6.03;1.92;;;14.20;81.40;;;;;;10429219;28;20049;-81
2022/01/09 07:59:12;;;;;;;4.80;1.38;;;14.20;81.50;;;;;;10416459;28;20099;-79
2022/01/09 08:04:13;;;;;;;3.55;1.23;;;14.20;81.50;;;;;;10416692;28;20045;-80
2022/01/09 08:09:14;;;;;;;3.78;1.17;;;14.20;81.40;;;;;;10416700;28;20060;-79
2022/01/09 08:14:16;;;;;;;4.82;1.50;;;14.20;81.50;;;;;;10440495;28;20045;-80
2022/01/09 08:19:17;;;;;;;3.78;1.40;;;14.30;81.50;;;;;;10456941;28;20053;-79
2022/01/09 08:24:19;;;;;;;3.25;1.30;;;14.20;81.50;;;;;;10456386;28;20427;-81
2022/01/09 08:29:20;;;;;;;5.15;1.55;;;14.20;81.40;;;;;;10418154;28;20403;-79
2022/01/09 08:34:22;;;;;;;3.05;1.30;;;14.30;81.40;;;;;;10415232;28;20180;-79
2022/01/09 08:39:23;;;;;;;4.53;1.73;;;14.20;81.40;;;;;;10415057;28;20057;-81
2022/01/09 08:44:25;;;;;;;4.80;1.67;;;14.30;81.40;;;;;;10437091;28;20049;-80
2022/01/09 08:49:26;;;;;;;4.60;1.60;;;14.20;81.50;;;;;;10455145;28;20049;-80
2022/01/09 08:54:28;;;;;;;4.15;1.45;;;14.30;81.40;;;;;;10455455;28;20453;-80
2022/01/09 08:59:29;;;;;;;3.70;1.65;;;14.30;81.40;;;;;;10455169;28;20056;-80
2022/01/09 09:04:31;;;;;;;4.00;1.30;;;14.30;81.50;;;;;;10455758;28;20444;-80
2022/01/09 09:09:32;;;;;;;5.03;1.40;;;14.30;81.30;;;;;;10455425;28;20486;-80
2022/01/09 09:14:34;;;;;;;3.15;1.30;;;14.30;81.50;;;;;;10452076;28;20060;-80
2022/01/09 09:19:35;;;;;;;4.43;1.33;;;14.30;81.30;;;;;;10423148;28;20049;-79
2022/01/09 09:24:37;;;;;;;4.32;1.23;;;14.30;81.30;;;;;;10413631;28;20071;-80
2022/01/09 09:29:39;;;;;;;4.22;1.40;;;14.30;81.40;;;;;;10413436;28;20418;-81
2022/01/09 09:34:41;;;;;;;5.00;1.70;;;14.40;81.30;;;;;;10429420;28;20127;-79
2022/01/09 09:39:42;;;;;;;2.85;1.10;;;14.30;81.40;;;;;;10454312;28;20057;-80
2022/01/09 09:44:44;;;;;;;4.28;1.40;;;14.40;81.30;;;;;;10454097;28;20041;-80
2022/01/09 09:49:45;;;;;;;3.78;1.40;;;14.40;81.30;;;;;;10452835;28;20045;-80
2022/01/09 09:54:47;;;;;;;3.78;1.45;;;14.40;81.40;;;;;;10412584;28;20046;-80
2022/01/09 09:59:48;;;;;;;4.13;1.50;;;14.40;81.20;;;;;;10412056;28;20053;-79
2022/01/09 10:04:50;;;;;;;3.63;1.25;;;14.40;81.30;;;;;;10411872;28;20054;-79
2022/01/09 10:09:51;;;;;;;3.17;1.10;;;14.50;81.30;;;;;;10412628;28;20041;-80
2022/01/09 10:14:53;;;;;;;4.45;1.52;;;14.40;81.20;;;;;;10426321;28;20052;-79
2022/01/09 10:19:54;;;;;;;3.65;1.25;;;14.40;81.30;;;;;;10452527;28;20048;-81
2022/01/09 10:24:56;;;;;;;2.97;1.17;;;14.40;81.20;;;;;;10442270;28;20052;-79
2022/01/09 10:29:58;;;;;;;3.47;1.40;;;14.40;81.20;;;;;;10411878;28;20046;-79
2022/01/09 10:34:59;;;;;;;2.60;1.10;;;14.40;81.30;;;;;;10411084;28;20407;-78
2022/01/09 10:40:01;;;;;;;4.40;1.42;;;14.50;81.30;;;;;;10422179;28;20449;-79
2022/01/09 10:45:02;;;;;;;3.03;1.30;;;14.50;81.30;;;;;;10444050;28;20057;-80
2022/01/09 10:50:04;;;;;;;3.45;1.10;;;14.50;81.30;;;;;;10452026;28;20053;-79
2022/01/09 10:55:05;;;;;;;4.20;1.42;;;14.50;81.30;;;;;;10452703;28;20049;-80
2022/01/09 11:00:07;;;;;;;3.35;1.27;;;14.40;81.40;;;;;;10431951;28;20053;-80
2022/01/09 11:05:08;;;;;;;3.47;1.30;;;14.50;81.30;;;;;;10410944;28;20113;-80
2022/01/09 11:10:10;;;;;;;3.35;1.35;;;14.40;81.20;;;;;;10410377;28;20050;-80
2022/01/09 11:15:12;;;;;;;2.92;1.30;;;14.50;81.40;;;;;;10427115;28;20100;-79
2022/01/09 11:20:14;;;;;;;4.22;1.38;;;14.50;81.30;;;;;;10418811;28;20506;-80
2022/01/09 11:25:15;;;;;;;3.03;1.02;;;14.50;81.30;;;;;;10418230;28;20100;-80
2022/01/09 11:30:18;;;;;;;4.13;1.30;;;14.50;81.40;;;;;;10417989;28;20494;-79
2022/01/09 11:35:19;;;;;;;3.20;1.20;;;14.50;81.30;;;;;;10419182;28;20077;-81
2022/01/09 11:40:21;;;;;;;3.08;1.40;;;14.50;81.30;;;;;;10417604;28;20457;-81
2022/01/09 11:45:22;;;;;;;3.65;1.30;;;14.50;81.30;;;;;;10433737;28;20445;-81
2022/01/09 11:50:24;;;;;;;3.95;1.15;;;14.60;81.30;;;;;;10446359;28;20133;-80
2022/01/09 11:55:25;;;;;;;3.15;1.27;;;14.50;81.30;;;;;;10458264;28;20060;-80
2022/01/09 12:00:28;;;;;;;3.10;1.00;;;14.50;81.30;;;;;;10458353;28;20045;-77
2022/01/09 12:05:29;;;;;;;2.58;0.95;;;14.60;81.30;;;;;;10457975;28;20048;-80
2022/01/09 12:10:32;;;;;;;3.83;1.27;;;14.60;81.30;;;;;;10449891;28;20037;-80
2022/01/09 12:15:34;;;;;;;3.00;1.20;;;14.60;81.40;;;;;;10457794;28;20136;-80
2022/01/09 12:20:37;;;;;;;2.50;1.10;;;14.60;81.30;;;;;;10457393;28;20103;-80
2022/01/09 12:25:38;;;;;;;2.92;0.93;;;14.60;81.30;;;;;;10456272;28;20068;-80
2022/01/09 12:30:41;;;;;;;3.08;1.23;;;14.60;81.40;;;;;;10457548;28;20437;-81
2022/01/09 12:35:42;;;;;;;2.67;1.10;;;14.60;81.30;;;;;;10457108;28;20403;-80
2022/01/09 12:40:44;;;;;;;3.20;1.13;;;14.60;81.30;;;;;;10455920;28;20143;-81
2022/01/09 12:45:46;;;;;;;2.42;1.10;;;14.60;81.40;;;;;;10456508;28;20053;-81
2022/01/09 12:50:47;;;;;;;3.13;1.20;;;14.60;81.40;;;;;;10455938;28;20091;-80
2022/01/09 12:55:49;;;;;;;3.35;1.23;;;14.60;81.40;;;;;;10456827;28;20103;-79
2022/01/09 13:00:50;;;;;;;2.90;1.10;;;14.60;81.40;;;;;;10423133;28;20049;-80
2022/01/09 13:05:52;;;;;;;2.70;1.15;;;14.60;81.60;;;;;;10455681;28;20052;-79
2022/01/09 13:10:53;;;;;;;3.25;0.95;;;14.60;81.60;;;;;;10455989;28;20057;-79
2022/01/09 13:15:55;;;;;;;3.13;1.30;;;14.60;81.50;;;;;;10436158;28;20074;-80
2022/01/09 13:20:56;;;;;;;2.55;1.00;;;14.60;81.50;;;;;;10413869;28;20053;-81
2022/01/09 13:25:58;;;;;;;2.17;0.90;;;14.50;81.70;;;;;;10413605;28;20045;-80
2022/01/09 13:31:00;;;;;;;4.05;1.30;;;14.60;81.60;;;;;;10414101;28;20067;-81
2022/01/09 13:36:01;;;;;;;2.83;1.08;;;14.60;81.60;;;;;;10412718;28;20457;-82
2022/01/09 13:41:03;;;;;;;3.58;1.20;;;14.50;81.80;;;;;;10412575;28;20057;-80
2022/01/09 13:46:04;;;;;;;2.38;1.00;;;14.50;81.70;;;;;;10434633;28;20048;-81
2022/01/09 13:51:06;;;;;;;3.63;1.10;;;14.60;81.70;;;;;;10425321;28;20517;-80
2022/01/09 13:56:07;;;;;;;2.00;0.90;;;14.50;81.70;;;;;;10412434;28;20049;-81
2022/01/09 14:01:09;;;;;;;2.63;1.00;;;14.50;81.80;;;;;;10412412;28;20343;-80
2022/01/09 14:06:10;;;;;;;4.00;1.30;;;14.50;81.70;;;;;;10412115;28;20049;-81
2022/01/09 14:11:12;;;;;;;2.95;1.00;;;14.50;81.70;;;;;;10431934;28;20045;-79
2022/01/09 14:16:14;;;;;;;2.55;1.00;;;14.50;81.90;;;;;;10430676;28;20495;-80
2022/01/09 14:21:15;;;;;;;2.60;0.95;;;14.50;81.80;;;;;;10411253;28;20410;-80
2022/01/09 14:26:17;;;;;;;3.38;1.00;;;14.50;81.80;;;;;;10411577;28;20080;-80
2022/01/09 14:31:18;;;;;;;1.85;0.85;;;14.50;82.00;;;;;;10411176;28;20050;-80
2022/01/09 14:36:20;;;;;;;2.45;0.93;;;14.50;81.80;;;;;;10410965;28;20049;-79
2022/01/09 14:41:21;;;;;;;1.95;0.90;;;14.50;81.80;;;;;;10411350;28;20052;-81
2022/01/09 14:46:23;;;;;;;3.00;1.00;;;14.40;81.90;;;;;;10422386;28;20052;-80
2022/01/09 14:51:24;;;;;;;2.92;1.08;;;14.50;81.90;;;;;;10450732;28;20049;-80
2022/01/09 14:56:26;;;;;;;2.38;0.73;;;14.40;81.80;;;;;;10445844;28;20045;-80
2022/01/09 15:01:28;;;;;;;2.35;0.80;;;14.40;82.00;;;;;;10411282;28;20132;-80
2022/01/09 15:06:29;;;;;;;2.50;1.00;;;14.40;81.90;;;;;;10410581;28;20049;-80
2022/01/09 15:11:31;;;;;;;2.60;1.05;;;14.40;81.90;;;;;;10410469;28;20064;-79
2022/01/09 15:16:32;;;;;;;2.90;0.93;;;14.40;82.00;;;;;;10434572;28;20079;-80
2022/01/09 15:21:34;;;;;;;2.88;1.00;;;14.40;81.90;;;;;;10451129;28;20056;-80
2022/01/09 15:26:35;;;;;;;2.28;1.00;;;14.40;81.90;;;;;;10451283;28;20509;-81
2022/01/09 15:31:37;;;;;;;1.80;0.70;;;14.40;82.00;;;;;;10435062;28;20413;-80
2022/01/09 15:36:38;;;;;;;1.83;0.70;;;14.40;82.00;;;;;;10410011;28;20095;-80
2022/01/09 15:41:40;;;;;;;1.92;1.00;;;14.40;81.90;;;;;;10409987;28;20072;-80
2022/01/09 15:46:41;;;;;;;3.22;1.10;;;14.30;82.00;;;;;;10423175;28;20402;-80
2022/01/09 15:51:43;;;;;;;2.03;0.85;;;14.40;81.90;;;;;;10450078;28;20052;-80
2022/01/09 15:56:44;;;;;;;2.55;0.88;;;14.40;81.90;;;;;;10450562;28;20064;-80
2022/01/09 16:01:46;;;;;;;2.75;0.90;;;14.30;81.90;;;;;;10448484;28;20046;-81
2022/01/09 16:06:47;;;;;;;2.25;0.90;;;14.30;81.80;;;;;;10417119;28;20061;-80
2022/01/09 16:11:49;;;;;;;2.08;0.80;;;14.30;81.90;;;;;;10416695;28;20038;-80
2022/01/09 16:16:51;;;;;;;2.60;1.00;;;14.30;81.90;;;;;;10418074;28;20057;-81
2022/01/09 16:21:52;;;;;;;2.30;0.90;;;14.30;81.80;;;;;;10456324;28;20051;-80
2022/01/09 16:26:54;;;;;;;1.83;0.75;;;14.30;81.90;;;;;;10456970;28;20060;-81
2022/01/09 16:31:55;;;;;;;2.22;0.80;;;14.40;81.90;;;;;;10456342;28;20052;-80
2022/01/09 16:36:57;;;;;;;2.00;0.80;;;14.30;81.80;;;;;;10456806;28;20053;-80
2022/01/09 16:41:58;;;;;;;2.80;1.00;;;14.30;81.80;;;;;;10421516;28;20045;-80
2022/01/09 16:47:00;;;;;;;2.30;1.10;;;14.40;81.80;;;;;;10431983;28;20055;-80
2022/01/09 16:52:01;;;;;;;1.13;0.70;;;14.30;81.70;;;;;;10456139;28;20044;-80
2022/01/09 16:57:03;;;;;;;2.65;0.90;;;14.30;81.80;;;;;;10436965;28;20041;-76
2022/01/09 17:02:04;;;;;;;1.80;0.82;;;14.30;81.70;;;;;;10414520;28;20517;-79
2022/01/09 17:07:06;;;;;;;1.45;0.70;;;14.30;81.70;;;;;;10414443;28;20446;-79
2022/01/09 17:12:07;;;;;;;2.33;0.88;;;14.30;81.70;;;;;;10413649;28;20486;-74
2022/01/09 17:17:09;;;;;;;2.00;0.70;;;14.30;81.60;;;;;;10418643;28;20437;-80
2022/01/09 17:22:10;;;;;;;1.92;0.90;;;14.30;81.70;;;;;;10455141;28;20068;-80
2022/01/09 17:27:13;;;;;;;2.30;0.80;;;14.30;81.60;;;;;;10454828;28;20067;-80
2022/01/09 17:32:14;;;;;;;2.58;1.00;;;14.30;81.60;;;;;;10425511;28;20068;-81
2022/01/09 17:37:17;;;;;;;2.15;0.90;;;14.30;81.60;;;;;;10451053;28;20060;-80
2022/01/09 17:42:18;;;;;;;2.45;0.82;;;14.30;81.50;;;;;;10454019;28;20541;-80
2022/01/09 17:47:20;;;;;;;1.23;0.70;;;14.30;81.60;;;;;;10440122;28;20045;-80
2022/01/09 17:52:21;;;;;;;1.92;0.80;;;14.30;81.50;;;;;;10412505;28;20042;-80
2022/01/09 17:57:23;;;;;;;2.30;0.90;;;14.30;81.50;;;;;;10412148;28;20072;-81
2022/01/09 18:02:25;;;;;;;2.30;0.90;;;14.30;81.60;;;;;;10411918;28;20068;-80
2022/01/09 18:07:26;;;;;;;2.22;1.02;;;14.40;81.50;;;;;;10412589;28;20142;-79
2022/01/09 18:12:28;;;;;;;1.63;0.75;;;14.30;81.50;;;;;;10411922;28;20060;-80
2022/01/09 18:17:29;;;;;;;1.73;0.80;;;14.30;81.50;;;;;;10419000;28;20532;-79
2022/01/09 18:22:30;;;;;;;1.80;1.00;;;14.30;81.50;;;;;;10429115;28;20418;-80
2022/01/09 18:27:32;;;;;;;1.98;1.08;;;14.30;81.50;;;;;;10411327;28;20407;-80
2022/01/09 18:32:34;;;;;;;2.30;0.93;;;14.30;81.40;;;;;;10411172;28;20052;-80
2022/01/09 18:37:35;;;;;;;1.83;0.95;;;14.30;81.50;;;;;;10411730;28;20092;-80
2022/01/09 18:42:37;;;;;;;1.77;1.00;;;14.30;81.50;;;;;;10410780;28;20494;-79
2022/01/09 18:47:38;;;;;;;1.70;1.00;;;14.30;81.40;;;;;;10439221;28;20045;-80
2022/01/09 18:52:40;;;;;;;1.65;1.05;;;14.30;81.50;;;;;;10452202;28;20061;-80
2022/01/09 18:57:41;;;;;;;2.35;0.95;;;14.30;81.40;;;;;;10418442;28;20046;-80
2022/01/09 19:02:44;;;;;;;2.08;1.00;;;14.30;81.40;;;;;;10410432;28;20045;-81
2022/01/09 19:07:46;;;;;;;1.70;0.90;;;14.30;81.40;;;;;;10410100;28;20453;-80
2022/01/09 19:12:47;;;;;;;1.85;1.05;;;14.30;81.90;;;;;;10410645;28;20422;-81
2022/01/09 19:17:50;;;;;;;1.75;0.98;;;14.30;81.40;;;;;;10420931;28;20053;-80
2022/01/09 19:22:53;;;;;;;2.63;1.00;;;14.30;81.30;;;;;;10451039;28;20049;-81
2022/01/09 19:27:54;;;;;;;2.20;1.13;;;14.30;81.30;;;;;;10449169;28;20407;-81
2022/01/09 19:32:56;;;;;;;2.67;1.00;;;14.30;81.40;;;;;;10409720;28;20406;-80
2022/01/09 19:37:57;;;;;;;2.08;1.05;;;14.30;81.30;;;;;;10416459;28;20060;-81
2022/01/09 19:42:59;;;;;;;1.75;1.00;;;14.30;81.90;;;;;;10418051;28;20045;-81
2022/01/09 19:48:00;;;;;;;1.83;1.10;;;14.30;81.30;;;;;;10417763;28;20065;-81
2022/01/09 19:53:02;;;;;;;1.30;0.90;;;14.30;81.30;;;;;;10454689;28;20102;-81
2022/01/09 19:58:03;;;;;;;2.70;1.10;;;14.30;81.30;;;;;;10446348;28;20052;-81
2022/01/09 20:03:05;;;;;;;1.45;0.75;;;14.30;81.30;;;;;;10446393;28;20049;-81
2022/01/09 20:08:07;;;;;;;1.63;1.00;;;14.30;81.30;;;;;;10416464;28;20049;-81
2022/01/09 20:13:08;;;;;;;1.67;1.05;;;14.30;81.20;;;;;;10429280;28;20564;-75
2022/01/09 20:18:10;;;;;;;2.97;1.13;;;14.30;81.20;;;;;;10455556;28;20056;-81
2022/01/09 20:23:11;;;;;;;3.13;1.08;;;14.30;81.20;;;;;;10445070;28;20340;-80
2022/01/09 20:28:13;;;;;;;3.72;1.02;;;14.60;80.90;;;;;;10453026;28;20052;-81
2022/01/09 20:33:15;;;;;;;3.45;1.05;;;15.10;80.10;;;;;;10451546;28;20137;-81
2022/01/09 20:38:16;;;;;;;1.80;0.93;;;15.80;79.20;;;;;;10431248;28;20068;-81
2022/01/09 20:43:18;;;;;;;1.98;0.93;;;16.40;78.30;;;;;;10445250;28;20422;-82
2022/01/09 20:48:22;;;;;;;2.13;1.10;;;16.90;77.50;;;;;;10414189;28;20050;-82
2022/01/09 20:53:24;;;;;;;2.55;1.00;;;17.40;76.90;;;;;;10430940;28;20077;-84
2022/01/09 20:58:28;;;;;;;3.53;0.90;;;17.80;76.30;;;;;;10444476;28;20059;-83
2022/01/09 21:03:29;;;;;;;1.50;0.82;;;18.10;75.80;;;;;;10450367;28;20068;-81
2022/01/09 21:08:31;;;;;;;2.08;0.80;;;18.50;75.30;;;;;;10449737;28;20044;-80
2022/01/09 21:13:32;;;;;;;2.35;0.80;;;18.80;75.00;;;;;;10434354;28;20057;-80
2022/01/09 21:18:34;;;;;;;3.05;0.90;;;19.10;74.60;;;;;;10448860;28;20049;-82
2022/01/09 21:23:35;;;;;;;1.58;0.90;;;19.20;74.20;;;;;;10448443;28;20045;-82
2022/01/09 21:28:37;;;;;;;1.92;0.90;;;19.30;74.10;;;;;;10434676;28;20060;-81
2022/01/09 21:33:40;;;;;;;1.55;0.80;;;19.40;73.90;;;;;;10449030;28;20056;-79
2022/01/09 21:38:41;;;;;;;2.55;0.98;;;19.50;73.90;;;;;;10452837;28;20059;-80
2022/01/09 21:43:43;;;;;;;1.15;0.80;;;19.50;73.90;;;;;;10452445;28;20037;-80
2022/01/09 21:48:44;;;;;;;2.03;0.93;;;19.20;74.30;;;;;;10448824;28;20044;-80
2022/01/09 21:53:46;;;;;;;3.75;0.93;;;18.80;74.80;;;;;;10453078;28;20051;-77
2022/01/09 21:58:47;;;;;;;3.55;1.05;;;18.40;75.40;;;;;;10442877;28;20053;-79
2022/01/09 22:03:49;;;;;;;3.72;1.13;;;18.00;76.00;;;;;;10445067;28;20045;-80
2022/01/09 22:08:50;;;;;;;3.20;1.27;;;17.60;76.50;;;;;;10452086;28;20041;-81
2022/01/09 22:13:52;;;;;;;2.47;1.25;;;17.40;77.00;;;;;;10452797;28;20052;-80
2022/01/09 22:18:53;;;;;;;2.35;1.20;;;17.10;77.20;;;;;;10442734;28;20052;-79
2022/01/09 22:23:56;;;;;;;2.45;1.05;;;16.90;77.40;;;;;;10423481;28;20041;-80
2022/01/09 22:28:57;;;;;;;3.00;1.25;;;16.80;77.60;;;;;;10451691;28;20460;-80
2022/01/09 22:33:59;;;;;;;2.70;1.00;;;16.80;77.70;;;;;;10420458;28;20510;-79
2022/01/09 22:39:00;;;;;;;2.65;1.20;;;16.70;77.90;;;;;;10429379;28;20402;-79
2022/01/09 22:44:02;;;;;;;1.77;1.08;;;16.70;78.00;;;;;;10416489;28;20410;-80
2022/01/09 22:49:03;;;;;;;4.13;1.58;;;16.60;78.00;;;;;;10431986;28;20069;-80
2022/01/09 22:54:05;;;;;;;4.03;1.50;;;16.60;78.10;;;;;;10446495;28;20052;-79
2022/01/09 22:59:06;;;;;;;2.30;1.23;;;16.60;78.10;;;;;;10449778;28;20068;-78
2022/01/09 23:04:08;;;;;;;2.55;1.10;;;16.60;78.10;;;;;;10451262;28;20564;-79
2022/01/09 23:09:09;;;;;;;2.97;1.20;;;16.60;78.10;;;;;;10446816;28;20049;-78
2022/01/09 23:14:11;;;;;;;3.20;1.45;;;16.60;78.20;;;;;;10452402;28;20049;-80
2022/01/09 23:19:12;;;;;;;2.45;1.15;;;16.60;78.20;;;;;;10459058;28;20045;-80
2022/01/09 23:24:14;;;;;;;4.22;1.17;;;16.60;78.30;;;;;;10457928;28;20068;-79
2022/01/09 23:29:15;;;;;;;2.55;1.17;;;16.60;78.60;;;;;;10458423;28;20041;-80
2022/01/09 23:34:17;;;;;;;3.17;1.45;;;16.60;78.20;;;;;;10457941;28;20049;-79
2022/01/09 23:39:18;;;;;;;2.50;1.25;;;16.60;78.20;;;;;;10459009;28;20089;-80
2022/01/09 23:44:20;;;;;;;3.38;1.23;;;16.60;78.20;;;;;;10444215;28;20491;-80
2022/01/09 23:54:41;;;;;;;3.10;1.35;;;16.60;78.20;;;;;;10453964;28;20116;-80
2022/01/09 23:59:43;;;;;;;2.40;1.20;;;16.50;78.20;;;;;;10457220;28;20102;-80
